sensor_id;sensor_type;location;lat;lon;timestamp;temperature;humidity
38854;DHT22;24606;51.992;4.198;2024-01-07T00:03:49;15.00;99.90
38854;DHT22;24606;51.992;4.198;2024-01-07T00:08:51;15.00;99.90
38854;DHT22;24606;51.992;4.198;2024-01-07T00:13:55;15.00;99.90
38854;DHT22;24606;51.992;4.198;2024-01-07T00:18:59;15.00;99.90
38854;DHT22;24606;51.992;4.198;2024-01-07T00:24:04;14.90;99.90
38854;DHT22;24606;51.992;4.198;2024-01-07T00:29:12;15.00;99.90
38854;DHT22;24606;51.992;4.198;2024-01-07T00:34:14;14.90;99.90
38854;DHT22;24606;51.992;4.198;2024-01-07T00:39:16;14.70;99.90
38854;DHT22;24606;51.992;4.198;2024-01-07T00:44:19;14.60;99.90
38854;DHT22;24606;51.992;4.198;2024-01-07T00:49:23;14.70;99.90
38854;DHT22;24606;51.992;4.198;2024-01-07T00:54:25;14.80;99.90
38854;DHT22;24606;51.992;4.198;2024-01-07T00:59:30;14.80;99.90
38854;DHT22;24606;51.992;4.198;2024-01-07T01:04:32;14.80;99.90
38854;DHT22;24606;51.992;4.198;2024-01-07T01:09:35;14.80;99.90
38854;DHT22;24606;51.992;4.198;2024-01-07T01:14:38;14.60;99.90
38854;DHT22;24606;51.992;4.198;2024-01-07T01:19:40;14.70;99.90
38854;DHT22;24606;51.992;4.198;2024-01-07T01:24:42;14.60;99.90
38854;DHT22;24606;51.992;4.198;2024-01-07T01:29:47;14.60;99.90
38854;DHT22;24606;51.992;4.198;2024-01-07T01:34:49;14.40;99.90
38854;DHT22;24606;51.992;4.198;2024-01-07T01:39:51;14.50;99.90
38854;DHT22;24606;51.992;4.198;2024-01-07T01:44:55;14.30;99.90
38854;DHT22;24606;51.992;4.198;2024-01-07T01:50:00;14.40;99.90
38854;DHT22;24606;51.992;4.198;2024-01-07T01:55:03;14.40;99.90
38854;DHT22;24606;51.992;4.198;2024-01-07T02:00:07;14.40;99.90
38854;DHT22;24606;51.992;4.198;2024-01-07T02:05:09;14.40;99.90
38854;DHT22;24606;51.992;4.198;2024-01-07T02:10:14;14.50;99.90
38854;DHT22;24606;51.992;4.198;2024-01-07T02:15:18;14.40;99.90
38854;DHT22;24606;51.992;4.198;2024-01-07T02:20:20;14.40;99.90
38854;DHT22;24606;51.992;4.198;2024-01-07T02:25:24;14.40;99.90
38854;DHT22;24606;51.992;4.198;2024-01-07T02:30:26;14.40;99.90
38854;DHT22;24606;51.992;4.198;2024-01-07T02:35:28;14.40;99.90
38854;DHT22;24606;51.992;4.198;2024-01-07T02:40:34;14.30;99.90
38854;DHT22;24606;51.992;4.198;2024-01-07T02:45:36;14.50;99.90
38854;DHT22;24606;51.992;4.198;2024-01-07T02:50:38;14.40;99.90
38854;DHT22;24606;51.992;4.198;2024-01-07T02:55:43;14.40;99.90
38854;DHT22;24606;51.992;4.198;2024-01-07T03:00:46;14.50;99.90
38854;DHT22;24606;51.992;4.198;2024-01-07T03:05:48;14.40;99.90
38854;DHT22;24606;51.992;4.198;2024-01-07T03:10:51;14.20;99.90
38854;DHT22;24606;51.992;4.198;2024-01-07T03:15:53;14.20;99.90
38854;DHT22;24606;51.992;4.198;2024-01-07T03:20:55;14.20;99.90
38854;DHT22;24606;51.992;4.198;2024-01-07T03:26:00;14.30;99.90
38854;DHT22;24606;51.992;4.198;2024-01-07T03:31:04;14.30;99.90
38854;DHT22;24606;51.992;4.198;2024-01-07T03:36:07;14.20;99.90
38854;DHT22;24606;51.992;4.198;2024-01-07T03:41:16;14.20;99.90
38854;DHT22;24606;51.992;4.198;2024-01-07T03:46:20;14.20;99.90
38854;DHT22;24606;51.992;4.198;2024-01-07T03:51:22;14.20;99.90
38854;DHT22;24606;51.992;4.198;2024-01-07T03:56:26;14.10;99.90
38854;DHT22;24606;51.992;4.198;2024-01-07T04:15:32;14.10;99.90
38854;DHT22;24606;51.992;4.198;2024-01-07T04:20:34;14.20;99.90
38854;DHT22;24606;51.992;4.198;2024-01-07T04:25:36;14.20;99.90
38854;DHT22;24606;51.992;4.198;2024-01-07T04:30:42;14.20;99.90
38854;DHT22;24606;51.992;4.198;2024-01-07T04:35:44;14.10;99.90
38854;DHT22;24606;51.992;4.198;2024-01-07T04:40:46;14.10;99.90
38854;DHT22;24606;51.992;4.198;2024-01-07T04:45:50;14.20;99.90
38854;DHT22;24606;51.992;4.198;2024-01-07T04:50:52;14.10;99.90
38854;DHT22;24606;51.992;4.198;2024-01-07T04:55:53;14.10;99.90
38854;DHT22;24606;51.992;4.198;2024-01-07T05:01:00;14.20;99.90
38854;DHT22;24606;51.992;4.198;2024-01-07T05:06:02;14.10;99.90
38854;DHT22;24606;51.992;4.198;2024-01-07T05:11:05;14.20;99.90
38854;DHT22;24606;51.992;4.198;2024-01-07T05:16:08;14.30;99.90
38854;DHT22;24606;51.992;4.198;2024-01-07T05:21:10;14.40;99.90
38854;DHT22;24606;51.992;4.198;2024-01-07T05:26:12;14.50;99.90
38854;DHT22;24606;51.992;4.198;2024-01-07T05:31:16;14.60;99.90
38854;DHT22;24606;51.992;4.198;2024-01-07T05:36:20;14.80;99.90
38854;DHT22;24606;51.992;4.198;2024-01-07T05:41:22;14.80;99.90
38854;DHT22;24606;51.992;4.198;2024-01-07T05:46:26;14.90;99.90
38854;DHT22;24606;51.992;4.198;2024-01-07T05:51:28;15.20;99.90
38854;DHT22;24606;51.992;4.198;2024-01-07T05:56:29;15.30;99.90
38854;DHT22;24606;51.992;4.198;2024-01-07T06:01:33;15.30;99.90
38854;DHT22;24606;51.992;4.198;2024-01-07T06:06:35;15.30;99.90
38854;DHT22;24606;51.992;4.198;2024-01-07T06:11:37;15.20;99.90
38854;DHT22;24606;51.992;4.198;2024-01-07T06:16:43;15.30;99.90
38854;DHT22;24606;51.992;4.198;2024-01-07T06:21:45;15.40;99.90
38854;DHT22;24606;51.992;4.198;2024-01-07T06:26:47;15.50;99.90
38854;DHT22;24606;51.992;4.198;2024-01-07T06:31:51;15.30;99.90
38854;DHT22;24606;51.992;4.198;2024-01-07T06:36:53;15.30;99.90
38854;DHT22;24606;51.992;4.198;2024-01-07T06:41:55;15.30;99.90
38854;DHT22;24606;51.992;4.198;2024-01-07T06:46:58;15.20;99.90
38854;DHT22;24606;51.992;4.198;2024-01-07T06:52:00;15.20;99.90
38854;DHT22;24606;51.992;4.198;2024-01-07T06:57:02;15.10;99.90
38854;DHT22;24606;51.992;4.198;2024-01-07T07:02:06;15.20;99.90
38854;DHT22;24606;51.992;4.198;2024-01-07T07:07:08;15.20;99.90
38854;DHT22;24606;51.992;4.198;2024-01-07T07:12:12;15.20;99.90
38854;DHT22;24606;51.992;4.198;2024-01-07T07:17:15;15.10;99.90
38854;DHT22;24606;51.992;4.198;2024-01-07T07:22:17;15.10;99.90
38854;DHT22;24606;51.992;4.198;2024-01-07T07:27:19;15.00;99.90
38854;DHT22;24606;51.992;4.198;2024-01-07T07:32:23;14.90;99.90
38854;DHT22;24606;51.992;4.198;2024-01-07T07:37:25;15.00;99.90
38854;DHT22;24606;51.992;4.198;2024-01-07T07:42:27;15.00;99.90
38854;DHT22;24606;51.992;4.198;2024-01-07T07:47:30;15.10;99.90
38854;DHT22;24606;51.992;4.198;2024-01-07T07:52:32;15.10;99.90
38854;DHT22;24606;51.992;4.198;2024-01-07T07:57:34;15.00;99.90
38854;DHT22;24606;51.992;4.198;2024-01-07T08:02:38;15.10;99.90
38854;DHT22;24606;51.992;4.198;2024-01-07T08:07:40;15.20;99.90
38854;DHT22;24606;51.992;4.198;2024-01-07T08:12:43;15.00;99.90
38854;DHT22;24606;51.992;4.198;2024-01-07T08:17:46;15.10;99.90
38854;DHT22;24606;51.992;4.198;2024-01-07T08:22:48;15.10;99.90
38854;DHT22;24606;51.992;4.198;2024-01-07T08:27:51;15.10;99.90
38854;DHT22;24606;51.992;4.198;2024-01-07T08:32:57;15.20;99.90
38854;DHT22;24606;51.992;4.198;2024-01-07T08:37:59;15.20;99.90
38854;DHT22;24606;51.992;4.198;2024-01-07T08:43:02;15.30;99.90
38854;DHT22;24606;51.992;4.198;2024-01-07T08:48:06;15.20;99.90
38854;DHT22;24606;51.992;4.198;2024-01-07T08:53:09;15.10;99.90
38854;DHT22;24606;51.992;4.198;2024-01-07T08:58:11;15.30;99.90
38854;DHT22;24606;51.992;4.198;2024-01-07T09:03:14;15.30;99.90
38854;DHT22;24606;51.992;4.198;2024-01-07T09:08:16;15.40;99.90
38854;DHT22;24606;51.992;4.198;2024-01-07T09:13:18;15.10;99.90
38854;DHT22;24606;51.992;4.198;2024-01-07T09:18:21;15.20;99.90
38854;DHT22;24606;51.992;4.198;2024-01-07T09:23:23;15.20;99.90
38854;DHT22;24606;51.992;4.198;2024-01-07T09:28:25;15.20;99.90
38854;DHT22;24606;51.992;4.198;2024-01-07T09:33:29;15.40;99.90
38854;DHT22;24606;51.992;4.198;2024-01-07T09:38:31;15.30;99.90
38854;DHT22;24606;51.992;4.198;2024-01-07T09:43:33;15.40;99.90
38854;DHT22;24606;51.992;4.198;2024-01-07T09:48:36;15.30;99.90
38854;DHT22;24606;51.992;4.198;2024-01-07T09:53:39;15.30;99.90
38854;DHT22;24606;51.992;4.198;2024-01-07T09:58:42;15.20;99.90
38854;DHT22;24606;51.992;4.198;2024-01-07T10:03:46;15.20;99.90
38854;DHT22;24606;51.992;4.198;2024-01-07T10:08:48;15.10;99.90
38854;DHT22;24606;51.992;4.198;2024-01-07T10:13:50;15.20;99.90
38854;DHT22;24606;51.992;4.198;2024-01-07T10:18:54;15.30;99.90
38854;DHT22;24606;51.992;4.198;2024-01-07T10:24:07;15.30;99.90
38854;DHT22;24606;51.992;4.198;2024-01-07T10:29:10;15.30;99.90
38854;DHT22;24606;51.992;4.198;2024-01-07T10:34:13;15.30;99.90
38854;DHT22;24606;51.992;4.198;2024-01-07T10:39:16;15.30;99.90
38854;DHT22;24606;51.992;4.198;2024-01-07T10:44:18;15.30;99.90
38854;DHT22;24606;51.992;4.198;2024-01-07T10:49:23;15.40;99.90
38854;DHT22;24606;51.992;4.198;2024-01-07T10:54:29;15.30;99.90
38854;DHT22;24606;51.992;4.198;2024-01-07T10:59:34;15.30;99.90
38854;DHT22;24606;51.992;4.198;2024-01-07T11:04:45;15.10;99.90
38854;DHT22;24606;51.992;4.198;2024-01-07T11:09:56;15.30;99.90
38854;DHT22;24606;51.992;4.198;2024-01-07T11:15:05;15.40;99.90
38854;DHT22;24606;51.992;4.198;2024-01-07T11:20:17;15.30;99.90
38854;DHT22;24606;51.992;4.198;2024-01-07T11:25:45;15.40;99.90
38854;DHT22;24606;51.992;4.198;2024-01-07T11:30:54;15.40;99.90
38854;DHT22;24606;51.992;4.198;2024-01-07T11:36:01;15.30;99.90
38854;DHT22;24606;51.992;4.198;2024-01-07T11:41:06;15.30;99.90
38854;DHT22;24606;51.992;4.198;2024-01-07T11:46:08;15.30;99.90
38854;DHT22;24606;51.992;4.198;2024-01-07T11:51:13;15.40;99.90
38854;DHT22;24606;51.992;4.198;2024-01-07T11:56:15;15.40;99.90
38854;DHT22;24606;51.992;4.198;2024-01-07T12:01:19;15.30;99.90
38854;DHT22;24606;51.992;4.198;2024-01-07T12:06:22;15.30;99.90
38854;DHT22;24606;51.992;4.198;2024-01-07T12:11:25;15.40;99.90
38854;DHT22;24606;51.992;4.198;2024-01-07T12:16:27;15.40;99.90
38854;DHT22;24606;51.992;4.198;2024-01-07T12:21:31;15.40;99.90
38854;DHT22;24606;51.992;4.198;2024-01-07T12:26:33;15.60;99.90
38854;DHT22;24606;51.992;4.198;2024-01-07T12:31:35;15.50;99.90
38854;DHT22;24606;51.992;4.198;2024-01-07T12:36:43;15.50;99.90
38854;DHT22;24606;51.992;4.198;2024-01-07T12:41:47;15.30;99.90
38854;DHT22;24606;51.992;4.198;2024-01-07T12:46:49;15.20;99.90
38854;DHT22;24606;51.992;4.198;2024-01-07T12:51:54;15.20;99.90
38854;DHT22;24606;51.992;4.198;2024-01-07T12:56:56;15.20;99.90
38854;DHT22;24606;51.992;4.198;2024-01-07T13:02:01;15.30;99.90
38854;DHT22;24606;51.992;4.198;2024-01-07T13:07:04;15.30;99.90
38854;DHT22;24606;51.992;4.198;2024-01-07T13:12:07;15.60;99.90
38854;DHT22;24606;51.992;4.198;2024-01-07T13:17:09;15.60;99.90
38854;DHT22;24606;51.992;4.198;2024-01-07T13:22:12;15.70;99.90
38854;DHT22;24606;51.992;4.198;2024-01-07T13:27:15;15.50;99.90
38854;DHT22;24606;51.992;4.198;2024-01-07T13:32:18;15.50;99.90
38854;DHT22;24606;51.992;4.198;2024-01-07T13:37:22;15.90;99.90
38854;DHT22;24606;51.992;4.198;2024-01-07T13:42:24;15.90;99.90
38854;DHT22;24606;51.992;4.198;2024-01-07T13:47:26;15.90;99.90
38854;DHT22;24606;51.992;4.198;2024-01-07T13:52:30;15.90;99.90
38854;DHT22;24606;51.992;4.198;2024-01-07T13:57:32;16.00;99.90
38854;DHT22;24606;51.992;4.198;2024-01-07T14:02:34;16.10;99.90
38854;DHT22;24606;51.992;4.198;2024-01-07T14:07:39;16.20;99.90
38854;DHT22;24606;51.992;4.198;2024-01-07T14:12:41;16.10;99.90
38854;DHT22;24606;51.992;4.198;2024-01-07T14:17:43;16.40;99.90
38854;DHT22;24606;51.992;4.198;2024-01-07T14:22:47;16.40;99.90
38854;DHT22;24606;51.992;4.198;2024-01-07T14:27:49;16.40;99.90
38854;DHT22;24606;51.992;4.198;2024-01-07T14:32:51;16.50;99.90
38854;DHT22;24606;51.992;4.198;2024-01-07T14:37:58;16.60;99.90
38854;DHT22;24606;51.992;4.198;2024-01-07T14:43:00;16.70;99.90
38854;DHT22;24606;51.992;4.198;2024-01-07T14:48:03;16.80;99.90
38854;DHT22;24606;51.992;4.198;2024-01-07T14:53:07;16.90;99.90
38854;DHT22;24606;51.992;4.198;2024-01-07T14:58:09;17.00;99.90
38854;DHT22;24606;51.992;4.198;2024-01-07T15:03:11;17.20;99.90
38854;DHT22;24606;51.992;4.198;2024-01-07T15:08:14;17.20;99.90
38854;DHT22;24606;51.992;4.198;2024-01-07T15:13:16;17.20;99.90
38854;DHT22;24606;51.992;4.198;2024-01-07T15:18:18;17.20;99.90
38854;DHT22;24606;51.992;4.198;2024-01-07T15:23:22;17.30;99.90
38854;DHT22;24606;51.992;4.198;2024-01-07T15:28:24;17.20;99.90
38854;DHT22;24606;51.992;4.198;2024-01-07T15:33:26;17.30;99.90
38854;DHT22;24606;51.992;4.198;2024-01-07T15:38:30;17.20;99.90
38854;DHT22;24606;51.992;4.198;2024-01-07T15:43:32;17.30;99.90
38854;DHT22;24606;51.992;4.198;2024-01-07T15:48:34;17.30;99.90
38854;DHT22;24606;51.992;4.198;2024-01-07T15:53:40;17.30;99.90
38854;DHT22;24606;51.992;4.198;2024-01-07T15:58:42;17.30;99.90
38854;DHT22;24606;51.992;4.198;2024-01-07T16:03:44;17.10;99.90
38854;DHT22;24606;51.992;4.198;2024-01-07T16:08:47;17.10;99.90
38854;DHT22;24606;51.992;4.198;2024-01-07T16:13:49;16.90;99.90
38854;DHT22;24606;51.992;4.198;2024-01-07T16:18:52;16.90;99.90
38854;DHT22;24606;51.992;4.198;2024-01-07T16:23:56;17.20;99.90
38854;DHT22;24606;51.992;4.198;2024-01-07T16:28:58;17.10;99.90
38854;DHT22;24606;51.992;4.198;2024-01-07T16:34:00;17.00;99.90
38854;DHT22;24606;51.992;4.198;2024-01-07T16:39:03;16.80;99.90
38854;DHT22;24606;51.992;4.198;2024-01-07T16:44:05;16.70;99.90
38854;DHT22;24606;51.992;4.198;2024-01-07T16:49:09;16.50;99.90
38854;DHT22;24606;51.992;4.198;2024-01-07T16:54:12;16.10;99.90
38854;DHT22;24606;51.992;4.198;2024-01-07T16:59:15;15.60;99.90
38854;DHT22;24606;51.992;4.198;2024-01-07T17:04:17;15.70;99.90
38854;DHT22;24606;51.992;4.198;2024-01-07T17:09:22;15.30;99.90
38854;DHT22;24606;51.992;4.198;2024-01-07T17:14:25;15.20;99.90
38854;DHT22;24606;51.992;4.198;2024-01-07T17:19:30;15.50;99.90
38854;DHT22;24606;51.992;4.198;2024-01-07T17:24:34;15.10;99.90
38854;DHT22;24606;51.992;4.198;2024-01-07T17:29:37;14.90;99.90
38854;DHT22;24606;51.992;4.198;2024-01-07T17:34:39;15.10;99.90
38854;DHT22;24606;51.992;4.198;2024-01-07T17:39:42;15.00;99.90
38854;DHT22;24606;51.992;4.198;2024-01-07T17:44:45;15.00;99.90
38854;DHT22;24606;51.992;4.198;2024-01-07T17:49:48;15.20;99.90
38854;DHT22;24606;51.992;4.198;2024-01-07T17:54:53;15.40;99.90
38854;DHT22;24606;51.992;4.198;2024-01-07T17:59:57;15.40;99.90
38854;DHT22;24606;51.992;4.198;2024-01-07T18:05:02;15.40;99.90
38854;DHT22;24606;51.992;4.198;2024-01-07T18:10:07;15.00;99.90
38854;DHT22;24606;51.992;4.198;2024-01-07T18:15:11;14.80;99.90
38854;DHT22;24606;51.992;4.198;2024-01-07T18:20:13;14.70;99.90
38854;DHT22;24606;51.992;4.198;2024-01-07T18:25:17;14.60;99.90
38854;DHT22;24606;51.992;4.198;2024-01-07T18:30:19;14.50;99.90
38854;DHT22;24606;51.992;4.198;2024-01-07T18:35:22;14.50;99.90
38854;DHT22;24606;51.992;4.198;2024-01-07T18:40:26;14.40;99.90
38854;DHT22;24606;51.992;4.198;2024-01-07T18:45:29;14.30;99.90
38854;DHT22;24606;51.992;4.198;2024-01-07T18:50:31;14.20;99.90
38854;DHT22;24606;51.992;4.198;2024-01-07T18:55:35;14.20;99.90
38854;DHT22;24606;51.992;4.198;2024-01-07T19:00:40;14.20;99.90
38854;DHT22;24606;51.992;4.198;2024-01-07T19:05:44;14.20;99.90
38854;DHT22;24606;51.992;4.198;2024-01-07T19:10:50;14.60;99.90
38854;DHT22;24606;51.992;4.198;2024-01-07T19:15:52;14.80;99.90
38854;DHT22;24606;51.992;4.198;2024-01-07T19:20:57;14.80;99.90
38854;DHT22;24606;51.992;4.198;2024-01-07T19:26:09;14.70;99.90
38854;DHT22;24606;51.992;4.198;2024-01-07T19:31:13;14.70;99.90
38854;DHT22;24606;51.992;4.198;2024-01-07T19:36:17;14.70;99.90
38854;DHT22;24606;51.992;4.198;2024-01-07T19:41:24;14.70;99.90
38854;DHT22;24606;51.992;4.198;2024-01-07T19:46:33;14.60;99.90
38854;DHT22;24606;51.992;4.198;2024-01-07T19:51:36;14.60;99.90
38854;DHT22;24606;51.992;4.198;2024-01-07T19:56:40;14.50;99.90
38854;DHT22;24606;51.992;4.198;2024-01-07T20:01:42;14.40;99.90
38854;DHT22;24606;51.992;4.198;2024-01-07T20:06:44;14.40;99.90
38854;DHT22;24606;51.992;4.198;2024-01-07T20:11:48;14.30;99.90
38854;DHT22;24606;51.992;4.198;2024-01-07T20:16:50;14.50;99.90
38854;DHT22;24606;51.992;4.198;2024-01-07T20:21:53;14.30;99.90
38854;DHT22;24606;51.992;4.198;2024-01-07T20:26:57;14.20;99.90
38854;DHT22;24606;51.992;4.198;2024-01-07T20:32:00;14.10;99.90
38854;DHT22;24606;51.992;4.198;2024-01-07T20:37:03;14.00;99.90
38854;DHT22;24606;51.992;4.198;2024-01-07T20:42:06;13.90;99.90
38854;DHT22;24606;51.992;4.198;2024-01-07T20:47:08;13.90;99.90
38854;DHT22;24606;51.992;4.198;2024-01-07T20:52:10;13.80;99.90
38854;DHT22;24606;51.992;4.198;2024-01-07T20:57:14;13.70;99.90
38854;DHT22;24606;51.992;4.198;2024-01-07T21:02:16;13.80;99.90
38854;DHT22;24606;51.992;4.198;2024-01-07T21:07:18;13.70;99.90
38854;DHT22;24606;51.992;4.198;2024-01-07T21:12:22;13.70;99.90
38854;DHT22;24606;51.992;4.198;2024-01-07T21:17:24;13.60;99.90
38854;DHT22;24606;51.992;4.198;2024-01-07T21:22:26;14.10;99.90
38854;DHT22;24606;51.992;4.198;2024-01-07T21:27:29;13.70;99.90
38854;DHT22;24606;51.992;4.198;2024-01-07T21:32:31;13.50;99.90
38854;DHT22;24606;51.992;4.198;2024-01-07T21:37:33;13.60;99.90
38854;DHT22;24606;51.992;4.198;2024-01-07T21:42:37;13.50;99.90
38854;DHT22;24606;51.992;4.198;2024-01-07T21:47:40;13.40;99.90
38854;DHT22;24606;51.992;4.198;2024-01-07T21:52:51;13.50;99.90
38854;DHT22;24606;51.992;4.198;2024-01-07T21:57:56;13.50;99.90
38854;DHT22;24606;51.992;4.198;2024-01-07T22:02:58;13.40;99.90
38854;DHT22;24606;51.992;4.198;2024-01-07T22:08:01;13.40;99.90
38854;DHT22;24606;51.992;4.198;2024-01-07T22:13:07;13.30;99.90
38854;DHT22;24606;51.992;4.198;2024-01-07T22:18:10;13.30;99.90
38854;DHT22;24606;51.992;4.198;2024-01-07T22:23:13;13.30;99.90
38854;DHT22;24606;51.992;4.198;2024-01-07T22:28:16;13.20;99.90
38854;DHT22;24606;51.992;4.198;2024-01-07T22:33:18;13.20;99.90
38854;DHT22;24606;51.992;4.198;2024-01-07T22:38:23;13.20;99.90
38854;DHT22;24606;51.992;4.198;2024-01-07T22:43:26;13.20;99.90
38854;DHT22;24606;51.992;4.198;2024-01-07T22:48:29;13.20;99.90
38854;DHT22;24606;51.992;4.198;2024-01-07T22:53:32;13.10;99.90
38854;DHT22;24606;51.992;4.198;2024-01-07T22:58:36;13.20;99.90
38854;DHT22;24606;51.992;4.198;2024-01-07T23:03:39;13.20;99.90
38854;DHT22;24606;51.992;4.198;2024-01-07T23:08:41;13.10;99.90
38854;DHT22;24606;51.992;4.198;2024-01-07T23:13:44;13.10;99.90
38854;DHT22;24606;51.992;4.198;2024-01-07T23:18:48;13.10;99.90
38854;DHT22;24606;51.992;4.198;2024-01-07T23:23:50;13.20;99.90
38854;DHT22;24606;51.992;4.198;2024-01-07T23:28:54;13.00;99.90
38854;DHT22;24606;51.992;4.198;2024-01-07T23:33:56;13.00;99.90
38854;DHT22;24606;51.992;4.198;2024-01-07T23:38:58;13.00;99.90
38854;DHT22;24606;51.992;4.198;2024-01-07T23:44:01;13.10;99.90
38854;DHT22;24606;51.992;4.198;2024-01-07T23:49:03;13.10;99.90
38854;DHT22;24606;51.992;4.198;2024-01-07T23:54:06;13.00;99.90
38854;DHT22;24606;51.992;4.198;2024-01-07T23:59:10;13.00;99.90
